createdAt,value
2018-08-16T00:02:51.517Z,8
2018-08-16T00:07:53.830Z,9
2018-08-16T00:12:56.230Z,9
2018-08-16T00:17:58.644Z,10
2018-08-16T00:23:01.125Z,11
2018-08-16T00:28:03.745Z,11
2018-08-16T00:33:06.051Z,9
2018-08-16T00:38:08.813Z,10
2018-08-16T00:43:10.930Z,11
2018-08-16T00:48:13.434Z,10
2018-08-16T00:53:16.037Z,11
2018-08-16T00:58:18.311Z,10
2018-08-16T01:03:20.779Z,10
2018-08-16T01:08:23.254Z,9
2018-08-16T01:13:25.826Z,10
2018-08-16T01:18:28.325Z,11
2018-08-16T01:23:30.623Z,11
2018-08-16T01:28:33.102Z,10
2018-08-16T01:33:35.546Z,11
2018-08-16T01:38:37.997Z,10
2018-08-16T01:43:40.496Z,11
2018-08-16T01:48:42.880Z,11
2018-08-16T01:53:45.417Z,12
2018-08-16T01:58:47.841Z,12
2018-08-16T02:03:50.605Z,12
2018-08-16T02:08:52.725Z,12
2018-08-16T02:13:55.218Z,12
2018-08-16T02:18:57.721Z,12
2018-08-16T02:24:00.104Z,11
2018-08-16T02:29:03.261Z,12
2018-08-16T02:34:05.020Z,11
2018-08-16T02:39:07.518Z,10
2018-08-16T02:44:10.212Z,11
2018-08-16T02:49:12.449Z,10
2018-08-16T02:54:14.842Z,11
2018-08-16T02:59:17.315Z,12
2018-08-16T03:04:19.941Z,13
2018-08-16T03:09:22.231Z,10
2018-08-16T03:14:26.005Z,11
2018-08-16T03:19:27.157Z,11
2018-08-16T03:24:29.820Z,12
2018-08-16T03:29:32.051Z,12
2018-08-16T03:34:34.515Z,14
2018-08-16T03:39:36.957Z,12
2018-08-16T03:44:39.621Z,12
2018-08-16T03:49:41.892Z,15
2018-08-16T03:54:44.724Z,17
2018-08-16T03:59:46.865Z,13
2018-08-16T04:04:49.296Z,12
2018-08-16T04:09:51.719Z,14
2018-08-16T04:14:54.511Z,13
2018-08-16T04:19:56.641Z,16
2018-08-16T04:24:59.163Z,14
2018-08-16T04:30:06.555Z,15
2018-08-16T04:35:04.033Z,13
2018-08-16T04:40:06.567Z,14
2018-08-16T04:45:09.051Z,13
2018-08-16T04:50:11.424Z,14
2018-08-16T04:55:13.857Z,13
2018-08-16T05:00:16.366Z,13
2018-08-16T05:05:18.801Z,11
2018-08-16T05:10:21.440Z,12
2018-08-16T05:15:23.719Z,10
2018-08-16T05:20:26.280Z,9
2018-08-16T05:25:28.585Z,8
2018-08-16T05:30:31.036Z,8
2018-08-16T05:35:33.594Z,7
2018-08-16T05:40:35.956Z,7
2018-08-16T05:45:38.428Z,6
2018-08-16T05:50:40.983Z,6
2018-08-16T05:55:43.366Z,7
2018-08-16T06:00:45.802Z,6
2018-08-16T06:05:48.512Z,6
2018-08-16T06:10:50.725Z,6
2018-08-16T06:15:53.186Z,7
2018-08-16T06:20:55.655Z,6
2018-08-16T06:25:58.254Z,6
2018-08-16T06:31:00.903Z,6
2018-08-16T06:36:03.233Z,5
2018-08-16T06:41:05.497Z,6
2018-08-16T06:46:08.172Z,6
2018-08-16T06:51:10.459Z,6
2018-08-16T06:56:12.878Z,5
2018-08-16T07:01:15.454Z,4
2018-08-16T07:06:17.808Z,4
2018-08-16T07:11:20.249Z,3
2018-08-16T07:16:22.843Z,3
2018-08-16T07:21:26.397Z,3
2018-08-16T07:26:27.636Z,3
2018-08-16T07:31:30.122Z,3
2018-08-16T07:36:32.565Z,2
2018-08-16T07:41:35.027Z,2
2018-08-16T07:46:37.502Z,2
2018-08-16T07:51:40.395Z,2
2018-08-16T07:56:42.420Z,3
2018-08-16T08:06:47.431Z,2
2018-08-16T08:11:49.806Z,2
2018-08-16T08:21:54.688Z,2
2018-08-16T08:26:57.213Z,2
2018-08-16T08:37:02.244Z,2
2018-08-16T08:42:04.625Z,2
2018-08-16T08:47:07.274Z,2
2018-08-16T08:52:09.577Z,2
2018-08-16T08:57:11.914Z,2
2018-08-16T09:02:14.616Z,2
2018-08-16T09:07:16.917Z,2
2018-08-16T09:12:19.340Z,2
2018-08-16T09:17:21.776Z,2
2018-08-16T09:22:24.339Z,2
2018-08-16T09:27:26.675Z,2
2018-08-16T09:32:29.405Z,2
2018-08-16T09:37:31.599Z,2
2018-08-16T09:42:34.239Z,2
2018-08-16T09:47:36.705Z,2
2018-08-16T09:52:38.976Z,2
2018-08-16T09:57:41.461Z,2
2018-08-16T10:02:44.066Z,2
2018-08-16T10:07:46.445Z,2
2018-08-16T10:12:48.956Z,2
2018-08-16T10:17:51.370Z,2
2018-08-16T10:22:53.798Z,2
2018-08-16T10:27:56.249Z,2
2018-08-16T10:32:58.647Z,2
2018-08-16T10:38:01.186Z,1
2018-08-16T10:43:03.567Z,1
2018-08-16T10:48:06.023Z,2
2018-08-16T10:53:08.509Z,2
2018-08-16T10:58:10.984Z,1
2018-08-16T11:08:16.090Z,2
2018-08-16T11:13:18.313Z,2
2018-08-16T11:18:20.797Z,2
2018-08-16T11:23:23.791Z,2
2018-08-16T11:28:26.304Z,2
2018-08-16T11:33:28.819Z,2
2018-08-16T11:38:30.731Z,2
2018-08-16T11:43:33.756Z,2
2018-08-16T11:48:35.591Z,2
2018-08-16T11:53:38.008Z,2
2018-08-16T11:58:40.785Z,2
2018-08-16T12:03:42.918Z,2
2018-08-16T12:08:45.552Z,2
2018-08-16T12:13:48.089Z,2
2018-08-16T12:18:50.478Z,2
2018-08-16T12:23:52.745Z,2
2018-08-16T12:28:55.472Z,2
2018-08-16T12:33:57.768Z,2
2018-08-16T12:39:00.271Z,2
2018-08-16T12:44:02.744Z,2
2018-08-16T12:49:05.040Z,2
2018-08-16T12:54:07.907Z,2
2018-08-16T12:59:10.218Z,2
2018-08-16T13:04:12.701Z,2
2018-08-16T13:09:19.269Z,3
2018-08-16T13:14:17.582Z,2
2018-08-16T13:19:50.906Z,2
2018-08-16T13:29:24.714Z,2
2018-08-16T13:39:29.912Z,2
2018-08-16T13:44:32.496Z,3
2018-08-16T13:49:34.665Z,2
2018-08-16T13:59:39.601Z,2
2018-08-16T14:04:48.936Z,2
2018-08-16T14:09:44.711Z,2
2018-08-16T14:14:46.906Z,2
2018-08-16T14:19:49.556Z,4
2018-08-16T14:24:53.585Z,2
2018-08-16T14:30:01.379Z,2
2018-08-16T14:34:56.755Z,2
2018-08-16T14:40:00.096Z,2
2018-08-16T14:45:08.587Z,2
2018-08-16T14:50:33.962Z,2
2018-08-16T14:55:45.550Z,2
2018-08-16T15:00:09.049Z,2
2018-08-16T15:05:11.589Z,2
2018-08-16T15:10:14.383Z,2
2018-08-16T15:15:17.416Z,2
2018-08-16T15:20:18.843Z,2
2018-08-16T15:25:21.382Z,2
2018-08-16T15:30:23.989Z,2
2018-08-16T15:35:26.350Z,2
2018-08-16T15:40:29.090Z,2
2018-08-16T15:45:31.210Z,2
2018-08-16T15:50:33.642Z,2
2018-08-16T15:55:36.232Z,2
2018-08-16T16:00:38.571Z,2
2018-08-16T16:05:45.256Z,2
2018-08-16T16:10:43.702Z,2
2018-08-16T18:58:50.762Z,3
2018-08-16T19:03:52.975Z,3
2018-08-16T19:08:55.578Z,3
2018-08-16T19:13:57.918Z,3
2018-08-16T19:19:01.103Z,3
2018-08-16T19:24:03.164Z,3
2018-08-16T19:29:05.558Z,3
2018-08-16T19:34:07.741Z,3
2018-08-16T19:44:12.677Z,3
2018-08-16T19:49:15.392Z,3
2018-08-16T19:54:17.641Z,3
2018-08-16T19:59:20.044Z,4
2018-08-16T20:04:26.259Z,3
2018-08-16T20:09:25.235Z,3
2018-08-16T20:14:27.654Z,3
2018-08-16T20:19:30.072Z,3
2018-08-16T20:24:32.401Z,3
2018-08-16T20:29:34.772Z,3
2018-08-16T20:34:37.391Z,3
2018-08-16T20:39:39.815Z,4
2018-08-16T20:44:42.144Z,4
2018-08-16T20:49:44.797Z,3
2018-08-16T20:54:47.045Z,4
2018-08-16T20:59:54.026Z,3
2018-08-16T21:04:52.219Z,4
2018-08-16T21:09:54.423Z,3
2018-08-16T21:14:57.044Z,4
2018-08-16T21:19:59.537Z,4
2018-08-16T21:25:01.912Z,3
2018-08-16T21:30:04.306Z,3
2018-08-16T21:35:06.721Z,3
2018-08-16T21:40:09.194Z,3
2018-08-16T21:45:11.633Z,3
2018-08-16T21:50:14.163Z,3
2018-08-16T21:55:16.570Z,3
2018-08-16T22:00:19.084Z,3
2018-08-16T22:05:21.686Z,2
2018-08-16T22:10:24.033Z,2
2018-08-16T22:15:26.404Z,3
2018-08-16T22:20:28.852Z,3
2018-08-16T22:25:31.391Z,2
2018-08-16T22:30:33.761Z,2
2018-08-16T22:35:36.239Z,2
2018-08-16T22:40:42.393Z,3
2018-08-16T22:45:41.138Z,2
2018-08-16T22:50:43.666Z,3
2018-08-16T22:55:46.231Z,3
2018-08-16T23:00:48.532Z,2
2018-08-16T23:05:50.972Z,3
2018-08-16T23:10:53.645Z,2
2018-08-16T23:15:55.968Z,2
2018-08-16T23:20:58.370Z,3
2018-08-16T23:26:00.947Z,3
2018-08-16T23:31:03.614Z,2
2018-08-16T23:36:05.773Z,2
2018-08-16T23:46:10.929Z,3
2018-08-16T23:51:13.140Z,3
